createdAt,value
2023-04-19T05:44:14.325Z,99958.72
2023-04-19T05:47:00.134Z,99958.72
2023-04-19T05:49:45.753Z,99971.19
2023-04-19T05:52:31.396Z,99978.06
2023-04-19T05:55:18.358Z,99974.97
2023-04-19T05:58:03.984Z,99968.34
2023-04-19T06:00:49.700Z,99968.53
2023-04-19T06:03:35.421Z,99966.66
2023-04-19T06:06:22.548Z,99970.41
2023-04-19T06:09:08.093Z,99970.84
2023-04-19T06:11:54.892Z,99981.00
2023-04-19T06:14:40.274Z,99973.00
2023-04-19T06:17:26.905Z,99986.22
2023-04-19T06:20:12.707Z,99980.72
2023-04-19T06:22:59.339Z,99982.53
2023-04-19T06:25:46.054Z,99982.59
2023-04-19T06:28:34.705Z,99983.44
2023-04-19T06:31:20.080Z,99990.16
2023-04-19T06:34:08.096Z,99986.94
2023-04-19T06:36:54.183Z,99988.00
2023-04-19T06:39:39.399Z,99991.91
2023-04-19T06:42:26.088Z,99990.62
2023-04-19T06:45:12.051Z,99978.03
2023-04-19T06:47:57.392Z,99983.69
2023-04-19T06:50:42.966Z,99985.13
2023-04-19T06:53:28.755Z,99988.22
2023-04-19T06:56:14.720Z,99991.59
2023-04-19T06:59:00.014Z,99999.50
2023-04-19T07:01:46.550Z,99992.28
2023-04-19T07:04:33.301Z,100000.28
2023-04-19T07:07:23.292Z,99993.41
2023-04-19T07:10:09.369Z,99997.31
2023-04-19T07:12:55.210Z,100000.16
2023-04-19T07:15:40.758Z,100006.50
2023-04-19T07:18:26.247Z,100000.03
2023-04-19T07:21:12.041Z,99992.06
2023-04-19T07:23:57.523Z,99992.97
2023-04-19T07:26:43.067Z,99983.16
2023-04-19T07:29:28.321Z,99998.84
2023-04-19T07:32:16.798Z,99989.03
2023-04-19T07:35:02.202Z,99993.84
2023-04-19T07:37:47.787Z,99990.34
2023-04-19T07:40:36.333Z,99995.84
2023-04-19T07:43:21.667Z,99994.53
2023-04-19T07:46:16.549Z,99992.09
2023-04-19T07:49:02.124Z,99999.09
2023-04-19T07:51:47.479Z,99992.44
2023-04-19T07:54:33.484Z,99992.28
2023-04-19T07:57:20.537Z,99992.38
2023-04-19T08:00:13.273Z,99989.78
2023-04-19T08:02:58.869Z,99967.44
2023-04-19T08:05:44.712Z,99987.50
2023-04-19T08:08:31.710Z,99981.00
2023-04-19T08:11:18.050Z,99993.87
2023-04-19T08:14:26.132Z,99981.00
2023-04-19T08:17:22.457Z,99989.88
2023-04-19T08:20:12.654Z,99985.06
2023-04-19T08:23:00.527Z,99985.00
2023-04-19T08:25:48.958Z,99990.62
2023-04-19T08:28:34.121Z,99986.84
2023-04-19T08:31:24.196Z,99986.16
2023-04-19T08:34:13.398Z,99979.09
2023-04-19T08:37:03.809Z,99981.44
2023-04-19T08:39:50.764Z,99987.00
2023-04-19T08:42:37.222Z,99986.44
2023-04-19T08:45:28.373Z,99992.81
2023-04-19T08:48:15.998Z,99988.19
2023-04-19T08:51:05.372Z,99990.72
2023-04-19T08:53:51.979Z,99969.22
2023-04-19T08:56:37.628Z,99980.84
2023-04-19T08:59:23.625Z,99970.94
2023-04-19T09:02:09.023Z,99977.69
2023-04-19T09:04:54.971Z,99965.25
2023-04-19T09:07:40.714Z,99974.53
2023-04-19T09:10:27.224Z,99972.09
2023-04-19T09:13:13.815Z,99965.91
2023-04-19T09:16:02.468Z,99967.75
2023-04-19T09:19:08.146Z,99947.22
2023-04-19T09:21:57.305Z,99950.63
2023-04-19T09:27:34.774Z,99945.06
2023-04-19T09:30:31.445Z,99944.72
2023-04-19T09:33:35.359Z,99935.16
2023-04-19T09:36:31.684Z,99929.31
2023-04-19T09:39:33.153Z,99925.28
2023-04-19T09:42:36.004Z,99933.66
2023-04-19T09:45:30.905Z,99924.22
2023-04-19T09:48:17.792Z,99922.94
2023-04-19T09:51:06.145Z,99904.97
2023-04-19T09:53:54.430Z,99911.38
2023-04-19T09:56:40.446Z,99899.50
2023-04-19T09:59:26.327Z,99909.72
2023-04-19T10:02:12.719Z,99909.69
2023-04-19T10:05:16.179Z,99907.34
2023-04-19T10:08:08.209Z,99911.06
2023-04-19T10:10:55.194Z,99898.47
2023-04-19T10:13:40.933Z,99905.44
2023-04-19T10:16:34.713Z,99889.72
2023-04-19T10:19:22.259Z,99900.75
2023-04-19T10:22:08.516Z,99894.22
2023-04-19T10:25:10.504Z,99889.06
2023-04-19T10:27:57.687Z,99886.69
2023-04-19T10:31:13.898Z,99880.06
2023-04-19T10:33:59.732Z,99889.94
2023-04-19T10:36:46.036Z,99882.13
2023-04-19T10:39:45.132Z,99877.63
2023-04-19T10:43:08.568Z,99869.84
2023-04-19T10:45:54.619Z,99876.81
2023-04-19T10:48:54.015Z,99868.97
2023-04-19T10:51:43.428Z,99864.09
2023-04-19T10:54:32.777Z,99875.88
2023-04-19T10:57:19.033Z,99852.41
2023-04-19T11:00:21.664Z,99871.44
2023-04-19T11:03:56.012Z,99873.69
2023-04-19T11:06:53.805Z,99859.56
2023-04-19T11:09:42.456Z,99869.22
2023-04-19T11:12:27.983Z,99858.94
2023-04-19T11:15:13.560Z,99866.09
2023-04-19T11:18:11.953Z,99862.00
2023-04-19T11:20:58.355Z,99863.13
2023-04-19T11:23:43.779Z,99865.47
2023-04-19T11:26:29.274Z,99857.00
2023-04-19T11:29:15.766Z,99856.25
2023-04-19T11:32:01.280Z,99849.47
2023-04-19T11:34:46.768Z,99837.88
2023-04-19T11:37:35.792Z,99848.69
2023-04-19T11:40:23.267Z,99857.63
2023-04-19T11:43:08.696Z,99855.47
2023-04-19T11:45:54.279Z,99857.47
2023-04-19T11:48:40.530Z,99848.34
2023-04-19T11:51:26.963Z,99842.72
2023-04-19T11:54:19.417Z,99847.41
2023-04-19T11:57:06.708Z,99855.81
2023-04-19T12:00:09.669Z,99860.50
2023-04-19T12:02:56.043Z,99854.47
2023-04-19T12:06:04.010Z,99853.84
2023-04-19T12:08:51.706Z,99850.25
2023-04-19T12:11:50.249Z,99855.97
2023-04-19T12:14:37.887Z,99836.44
2023-04-19T12:17:23.288Z,99834.47
2023-04-19T12:20:11.799Z,99836.28
2023-04-19T12:22:56.820Z,99837.12
2023-04-19T12:25:46.622Z,99824.91
2023-04-19T12:28:32.375Z,99837.97
2023-04-19T12:31:18.476Z,99825.75
